sensor_id;sensor_type;location;lat;lon;timestamp;P1;durP1;ratioP1;P2;durP2;ratioP2
63874;SDS011;51595;24.180;-110.296;2022-07-25T00:00:52;7.75;;;2.80;;
63874;SDS011;51595;24.180;-110.296;2022-07-25T00:03:18;12.57;;;3.15;;
63874;SDS011;51595;24.180;-110.296;2022-07-25T00:05:45;10.43;;;2.67;;
63874;SDS011;51595;24.180;-110.296;2022-07-25T00:08:11;9.70;;;2.90;;
63874;SDS011;51595;24.180;-110.296;2022-07-25T00:10:38;12.93;;;3.10;;
63874;SDS011;51595;24.180;-110.296;2022-07-25T00:13:04;10.23;;;2.95;;
63874;SDS011;51595;24.180;-110.296;2022-07-25T00:15:31;9.27;;;2.95;;
63874;SDS011;51595;24.180;-110.296;2022-07-25T00:17:57;12.63;;;3.08;;
63874;SDS011;51595;24.180;-110.296;2022-07-25T00:20:24;12.20;;;3.25;;
63874;SDS011;51595;24.180;-110.296;2022-07-25T00:22:51;9.05;;;3.05;;
63874;SDS011;51595;24.180;-110.296;2022-07-25T00:25:18;10.57;;;2.65;;
63874;SDS011;51595;24.180;-110.296;2022-07-25T00:27:44;9.93;;;3.17;;
63874;SDS011;51595;24.180;-110.296;2022-07-25T00:30:11;13.38;;;3.00;;
63874;SDS011;51595;24.180;-110.296;2022-07-25T00:32:38;12.60;;;3.05;;
63874;SDS011;51595;24.180;-110.296;2022-07-25T00:35:04;7.35;;;3.20;;
63874;SDS011;51595;24.180;-110.296;2022-07-25T00:37:31;9.85;;;3.10;;
63874;SDS011;51595;24.180;-110.296;2022-07-25T00:39:57;11.15;;;3.60;;
63874;SDS011;51595;24.180;-110.296;2022-07-25T00:42:24;12.07;;;3.47;;
63874;SDS011;51595;24.180;-110.296;2022-07-25T00:44:50;10.63;;;3.47;;
63874;SDS011;51595;24.180;-110.296;2022-07-25T00:47:16;8.38;;;2.83;;
63874;SDS011;51595;24.180;-110.296;2022-07-25T00:49:43;13.10;;;3.35;;
63874;SDS011;51595;24.180;-110.296;2022-07-25T00:52:09;13.85;;;3.88;;
63874;SDS011;51595;24.180;-110.296;2022-07-25T00:54:36;15.07;;;3.58;;
63874;SDS011;51595;24.180;-110.296;2022-07-25T00:57:03;9.07;;;3.03;;
63874;SDS011;51595;24.180;-110.296;2022-07-25T00:59:30;10.90;;;2.78;;
63874;SDS011;51595;24.180;-110.296;2022-07-25T01:01:56;11.23;;;2.72;;
63874;SDS011;51595;24.180;-110.296;2022-07-25T01:04:23;10.38;;;3.30;;
63874;SDS011;51595;24.180;-110.296;2022-07-25T01:06:49;13.45;;;3.55;;
63874;SDS011;51595;24.180;-110.296;2022-07-25T01:09:16;13.95;;;3.20;;
63874;SDS011;51595;24.180;-110.296;2022-07-25T01:11:44;8.35;;;3.03;;
63874;SDS011;51595;24.180;-110.296;2022-07-25T01:14:11;14.57;;;3.33;;
63874;SDS011;51595;24.180;-110.296;2022-07-25T01:16:37;9.55;;;2.72;;
63874;SDS011;51595;24.180;-110.296;2022-07-25T01:19:05;9.73;;;3.20;;
63874;SDS011;51595;24.180;-110.296;2022-07-25T01:21:32;11.63;;;3.42;;
63874;SDS011;51595;24.180;-110.296;2022-07-25T01:24:02;11.88;;;2.85;;
63874;SDS011;51595;24.180;-110.296;2022-07-25T01:26:28;7.93;;;2.58;;
63874;SDS011;51595;24.180;-110.296;2022-07-25T01:28:55;13.52;;;3.55;;
63874;SDS011;51595;24.180;-110.296;2022-07-25T01:31:22;14.40;;;2.97;;
63874;SDS011;51595;24.180;-110.296;2022-07-25T01:33:48;13.68;;;3.22;;
63874;SDS011;51595;24.180;-110.296;2022-07-25T01:36:15;11.85;;;3.10;;
63874;SDS011;51595;24.180;-110.296;2022-07-25T01:38:42;10.32;;;2.97;;
63874;SDS011;51595;24.180;-110.296;2022-07-25T01:41:08;12.50;;;2.72;;
63874;SDS011;51595;24.180;-110.296;2022-07-25T01:43:35;14.90;;;3.35;;
63874;SDS011;51595;24.180;-110.296;2022-07-25T01:46:01;11.73;;;3.15;;
63874;SDS011;51595;24.180;-110.296;2022-07-25T01:48:28;7.90;;;3.03;;
63874;SDS011;51595;24.180;-110.296;2022-07-25T01:50:55;14.68;;;3.40;;
63874;SDS011;51595;24.180;-110.296;2022-07-25T01:53:21;13.05;;;3.17;;
63874;SDS011;51595;24.180;-110.296;2022-07-25T01:55:47;10.43;;;2.70;;
63874;SDS011;51595;24.180;-110.296;2022-07-25T01:58:14;13.10;;;2.95;;
63874;SDS011;51595;24.180;-110.296;2022-07-25T02:00:41;10.02;;;2.83;;
63874;SDS011;51595;24.180;-110.296;2022-07-25T02:03:07;11.82;;;2.97;;
63874;SDS011;51595;24.180;-110.296;2022-07-25T02:05:52;10.23;;;2.73;;
63874;SDS011;51595;24.180;-110.296;2022-07-25T02:08:18;18.95;;;3.72;;
63874;SDS011;51595;24.180;-110.296;2022-07-25T02:10:45;12.65;;;3.22;;
63874;SDS011;51595;24.180;-110.296;2022-07-25T02:13:11;9.80;;;3.17;;
63874;SDS011;51595;24.180;-110.296;2022-07-25T02:15:38;12.13;;;3.33;;
63874;SDS011;51595;24.180;-110.296;2022-07-25T02:18:04;7.20;;;2.50;;
63874;SDS011;51595;24.180;-110.296;2022-07-25T02:20:31;11.05;;;3.53;;
63874;SDS011;51595;24.180;-110.296;2022-07-25T02:23:06;13.10;;;2.72;;
63874;SDS011;51595;24.180;-110.296;2022-07-25T02:25:33;10.82;;;2.40;;
63874;SDS011;51595;24.180;-110.296;2022-07-25T02:28:03;11.15;;;2.95;;
63874;SDS011;51595;24.180;-110.296;2022-07-25T02:30:30;11.05;;;3.17;;
63874;SDS011;51595;24.180;-110.296;2022-07-25T02:32:59;11.20;;;3.42;;
63874;SDS011;51595;24.180;-110.296;2022-07-25T02:35:25;12.73;;;3.08;;
63874;SDS011;51595;24.180;-110.296;2022-07-25T02:37:52;9.15;;;3.17;;
63874;SDS011;51595;24.180;-110.296;2022-07-25T02:40:18;10.95;;;3.15;;
63874;SDS011;51595;24.180;-110.296;2022-07-25T02:42:45;10.23;;;2.92;;
63874;SDS011;51595;24.180;-110.296;2022-07-25T02:45:11;11.25;;;3.30;;
63874;SDS011;51595;24.180;-110.296;2022-07-25T02:47:38;21.23;;;4.10;;
63874;SDS011;51595;24.180;-110.296;2022-07-25T02:50:05;11.75;;;4.05;;
63874;SDS011;51595;24.180;-110.296;2022-07-25T02:52:32;10.70;;;3.30;;
63874;SDS011;51595;24.180;-110.296;2022-07-25T02:54:58;12.90;;;3.70;;
63874;SDS011;51595;24.180;-110.296;2022-07-25T02:57:25;13.45;;;3.40;;
63874;SDS011;51595;24.180;-110.296;2022-07-25T02:59:51;10.70;;;3.38;;
63874;SDS011;51595;24.180;-110.296;2022-07-25T03:02:20;10.75;;;3.60;;
63874;SDS011;51595;24.180;-110.296;2022-07-25T03:04:47;13.30;;;3.13;;
63874;SDS011;51595;24.180;-110.296;2022-07-25T03:07:13;14.45;;;3.20;;
63874;SDS011;51595;24.180;-110.296;2022-07-25T03:09:40;16.52;;;3.72;;
63874;SDS011;51595;24.180;-110.296;2022-07-25T03:12:09;9.48;;;3.03;;
63874;SDS011;51595;24.180;-110.296;2022-07-25T03:14:36;14.75;;;3.13;;
63874;SDS011;51595;24.180;-110.296;2022-07-25T03:17:02;11.98;;;3.15;;
63874;SDS011;51595;24.180;-110.296;2022-07-25T03:19:29;14.38;;;4.22;;
63874;SDS011;51595;24.180;-110.296;2022-07-25T03:21:55;12.38;;;3.20;;
63874;SDS011;51595;24.180;-110.296;2022-07-25T03:24:22;19.85;;;3.67;;
63874;SDS011;51595;24.180;-110.296;2022-07-25T03:26:49;11.88;;;3.35;;
63874;SDS011;51595;24.180;-110.296;2022-07-25T03:29:15;17.70;;;4.38;;
63874;SDS011;51595;24.180;-110.296;2022-07-25T03:31:42;16.33;;;3.85;;
63874;SDS011;51595;24.180;-110.296;2022-07-25T03:34:08;11.52;;;3.53;;
63874;SDS011;51595;24.180;-110.296;2022-07-25T03:36:35;11.70;;;3.63;;
63874;SDS011;51595;24.180;-110.296;2022-07-25T03:39:01;11.95;;;3.47;;
63874;SDS011;51595;24.180;-110.296;2022-07-25T03:41:28;17.30;;;3.90;;
63874;SDS011;51595;24.180;-110.296;2022-07-25T03:43:54;14.25;;;3.35;;
63874;SDS011;51595;24.180;-110.296;2022-07-25T03:46:20;17.45;;;3.88;;
63874;SDS011;51595;24.180;-110.296;2022-07-25T03:48:47;13.00;;;3.63;;
63874;SDS011;51595;24.180;-110.296;2022-07-25T03:51:13;15.18;;;4.05;;
63874;SDS011;51595;24.180;-110.296;2022-07-25T03:53:40;17.17;;;3.83;;
63874;SDS011;51595;24.180;-110.296;2022-07-25T03:56:24;16.33;;;4.32;;
63874;SDS011;51595;24.180;-110.296;2022-07-25T03:58:51;13.40;;;3.90;;
63874;SDS011;51595;24.180;-110.296;2022-07-25T04:01:17;14.48;;;3.63;;
63874;SDS011;51595;24.180;-110.296;2022-07-25T04:03:44;12.77;;;4.05;;
63874;SDS011;51595;24.180;-110.296;2022-07-25T04:06:11;14.77;;;3.88;;
63874;SDS011;51595;24.180;-110.296;2022-07-25T04:08:37;18.33;;;4.07;;
63874;SDS011;51595;24.180;-110.296;2022-07-25T04:11:04;12.95;;;4.10;;
63874;SDS011;51595;24.180;-110.296;2022-07-25T04:13:30;17.55;;;4.38;;
63874;SDS011;51595;24.180;-110.296;2022-07-25T04:15:57;16.35;;;3.85;;
63874;SDS011;51595;24.180;-110.296;2022-07-25T04:18:23;17.60;;;4.25;;
63874;SDS011;51595;24.180;-110.296;2022-07-25T04:20:50;15.20;;;3.55;;
63874;SDS011;51595;24.180;-110.296;2022-07-25T04:23:16;16.77;;;3.80;;
63874;SDS011;51595;24.180;-110.296;2022-07-25T04:25:43;16.73;;;3.88;;
63874;SDS011;51595;24.180;-110.296;2022-07-25T04:28:09;16.00;;;4.43;;
63874;SDS011;51595;24.180;-110.296;2022-07-25T04:30:36;13.55;;;4.40;;
63874;SDS011;51595;24.180;-110.296;2022-07-25T04:33:03;10.65;;;3.72;;
63874;SDS011;51595;24.180;-110.296;2022-07-25T04:35:29;13.93;;;3.80;;
63874;SDS011;51595;24.180;-110.296;2022-07-25T04:37:56;15.50;;;4.18;;
63874;SDS011;51595;24.180;-110.296;2022-07-25T04:40:22;12.38;;;4.07;;
63874;SDS011;51595;24.180;-110.296;2022-07-25T04:42:49;13.50;;;4.28;;
63874;SDS011;51595;24.180;-110.296;2022-07-25T04:45:15;13.50;;;3.60;;
63874;SDS011;51595;24.180;-110.296;2022-07-25T04:47:42;18.88;;;4.35;;
63874;SDS011;51595;24.180;-110.296;2022-07-25T04:50:09;19.13;;;4.15;;
63874;SDS011;51595;24.180;-110.296;2022-07-25T04:52:35;13.50;;;3.83;;
63874;SDS011;51595;24.180;-110.296;2022-07-25T04:55:02;15.38;;;3.95;;
63874;SDS011;51595;24.180;-110.296;2022-07-25T04:57:29;17.38;;;4.50;;
63874;SDS011;51595;24.180;-110.296;2022-07-25T04:59:56;15.82;;;4.25;;
63874;SDS011;51595;24.180;-110.296;2022-07-25T05:02:23;14.15;;;4.18;;
63874;SDS011;51595;24.180;-110.296;2022-07-25T05:04:50;15.48;;;4.47;;
63874;SDS011;51595;24.180;-110.296;2022-07-25T05:07:17;14.20;;;3.83;;
63874;SDS011;51595;24.180;-110.296;2022-07-25T05:09:43;18.33;;;4.53;;
63874;SDS011;51595;24.180;-110.296;2022-07-25T05:12:10;15.63;;;3.65;;
63874;SDS011;51595;24.180;-110.296;2022-07-25T05:14:37;13.52;;;3.80;;
63874;SDS011;51595;24.180;-110.296;2022-07-25T05:17:03;14.95;;;4.03;;
63874;SDS011;51595;24.180;-110.296;2022-07-25T05:19:30;22.08;;;4.22;;
63874;SDS011;51595;24.180;-110.296;2022-07-25T05:21:56;19.13;;;4.47;;
63874;SDS011;51595;24.180;-110.296;2022-07-25T05:24:23;15.15;;;4.38;;
63874;SDS011;51595;24.180;-110.296;2022-07-25T05:26:49;12.63;;;3.65;;
63874;SDS011;51595;24.180;-110.296;2022-07-25T05:29:16;16.13;;;4.75;;
63874;SDS011;51595;24.180;-110.296;2022-07-25T05:31:42;13.00;;;3.83;;
63874;SDS011;51595;24.180;-110.296;2022-07-25T05:34:09;13.70;;;3.63;;
63874;SDS011;51595;24.180;-110.296;2022-07-25T05:36:36;16.27;;;4.55;;
63874;SDS011;51595;24.180;-110.296;2022-07-25T05:39:02;13.65;;;3.80;;
63874;SDS011;51595;24.180;-110.296;2022-07-25T05:41:29;13.25;;;3.88;;
63874;SDS011;51595;24.180;-110.296;2022-07-25T05:43:55;15.48;;;5.10;;
63874;SDS011;51595;24.180;-110.296;2022-07-25T05:46:22;15.27;;;4.18;;
63874;SDS011;51595;24.180;-110.296;2022-07-25T05:48:48;16.77;;;4.13;;
63874;SDS011;51595;24.180;-110.296;2022-07-25T05:51:15;16.17;;;4.38;;
63874;SDS011;51595;24.180;-110.296;2022-07-25T05:53:41;16.77;;;4.32;;
63874;SDS011;51595;24.180;-110.296;2022-07-25T05:56:08;14.75;;;3.80;;
63874;SDS011;51595;24.180;-110.296;2022-07-25T05:58:35;13.43;;;4.50;;
63874;SDS011;51595;24.180;-110.296;2022-07-25T06:01:05;15.90;;;4.88;;
63874;SDS011;51595;24.180;-110.296;2022-07-25T06:03:32;15.43;;;4.13;;
63874;SDS011;51595;24.180;-110.296;2022-07-25T06:05:59;15.60;;;3.95;;
63874;SDS011;51595;24.180;-110.296;2022-07-25T06:08:25;14.90;;;4.32;;
63874;SDS011;51595;24.180;-110.296;2022-07-25T06:10:55;15.75;;;4.60;;
63874;SDS011;51595;24.180;-110.296;2022-07-25T06:13:23;20.00;;;5.00;;
63874;SDS011;51595;24.180;-110.296;2022-07-25T06:15:50;14.07;;;4.20;;
63874;SDS011;51595;24.180;-110.296;2022-07-25T06:18:17;15.40;;;4.35;;
63874;SDS011;51595;24.180;-110.296;2022-07-25T06:20:44;11.88;;;4.32;;
63874;SDS011;51595;24.180;-110.296;2022-07-25T06:23:10;12.52;;;4.97;;
63874;SDS011;51595;24.180;-110.296;2022-07-25T06:25:38;13.70;;;4.00;;
63874;SDS011;51595;24.180;-110.296;2022-07-25T06:28:04;16.52;;;4.40;;
63874;SDS011;51595;24.180;-110.296;2022-07-25T06:30:31;14.50;;;4.22;;
63874;SDS011;51595;24.180;-110.296;2022-07-25T06:32:57;15.70;;;4.35;;
63874;SDS011;51595;24.180;-110.296;2022-07-25T06:35:24;15.85;;;4.30;;
63874;SDS011;51595;24.180;-110.296;2022-07-25T06:37:50;16.63;;;4.75;;
63874;SDS011;51595;24.180;-110.296;2022-07-25T06:40:16;15.85;;;4.65;;
63874;SDS011;51595;24.180;-110.296;2022-07-25T06:42:44;14.60;;;4.72;;
63874;SDS011;51595;24.180;-110.296;2022-07-25T06:45:11;19.67;;;4.95;;
63874;SDS011;51595;24.180;-110.296;2022-07-25T06:47:39;19.85;;;5.18;;
63874;SDS011;51595;24.180;-110.296;2022-07-25T06:50:08;16.08;;;4.50;;
63874;SDS011;51595;24.180;-110.296;2022-07-25T06:52:36;14.95;;;4.70;;
63874;SDS011;51595;24.180;-110.296;2022-07-25T06:55:03;20.75;;;5.50;;
63874;SDS011;51595;24.180;-110.296;2022-07-25T06:57:30;20.40;;;4.70;;
63874;SDS011;51595;24.180;-110.296;2022-07-25T06:59:56;18.20;;;5.25;;
63874;SDS011;51595;24.180;-110.296;2022-07-25T07:02:23;14.05;;;4.55;;
63874;SDS011;51595;24.180;-110.296;2022-07-25T07:04:49;16.45;;;4.68;;
63874;SDS011;51595;24.180;-110.296;2022-07-25T07:07:16;19.88;;;5.03;;
63874;SDS011;51595;24.180;-110.296;2022-07-25T07:09:43;15.48;;;4.95;;
63874;SDS011;51595;24.180;-110.296;2022-07-25T07:12:09;16.67;;;4.38;;
63874;SDS011;51595;24.180;-110.296;2022-07-25T07:14:36;14.85;;;4.60;;
63874;SDS011;51595;24.180;-110.296;2022-07-25T07:17:03;15.32;;;5.22;;
63874;SDS011;51595;24.180;-110.296;2022-07-25T07:19:30;14.70;;;5.15;;
63874;SDS011;51595;24.180;-110.296;2022-07-25T07:21:56;17.77;;;4.90;;
63874;SDS011;51595;24.180;-110.296;2022-07-25T07:24:22;20.77;;;5.10;;
63874;SDS011;51595;24.180;-110.296;2022-07-25T07:26:49;19.98;;;6.25;;
63874;SDS011;51595;24.180;-110.296;2022-07-25T07:29:16;19.17;;;5.30;;
63874;SDS011;51595;24.180;-110.296;2022-07-25T07:31:42;19.52;;;5.18;;
63874;SDS011;51595;24.180;-110.296;2022-07-25T07:34:08;19.48;;;6.10;;
63874;SDS011;51595;24.180;-110.296;2022-07-25T07:36:35;18.45;;;5.47;;
63874;SDS011;51595;24.180;-110.296;2022-07-25T07:39:02;22.98;;;5.32;;
63874;SDS011;51595;24.180;-110.296;2022-07-25T07:41:28;21.30;;;5.28;;
63874;SDS011;51595;24.180;-110.296;2022-07-25T07:43:55;19.45;;;5.95;;
63874;SDS011;51595;24.180;-110.296;2022-07-25T07:46:21;17.85;;;5.50;;
63874;SDS011;51595;24.180;-110.296;2022-07-25T07:48:47;21.98;;;6.15;;
63874;SDS011;51595;24.180;-110.296;2022-07-25T07:51:14;21.60;;;5.82;;
63874;SDS011;51595;24.180;-110.296;2022-07-25T07:53:40;19.05;;;5.85;;
63874;SDS011;51595;24.180;-110.296;2022-07-25T07:56:25;16.70;;;5.47;;
63874;SDS011;51595;24.180;-110.296;2022-07-25T07:58:51;22.40;;;5.78;;
63874;SDS011;51595;24.180;-110.296;2022-07-25T08:01:18;22.10;;;5.70;;
63874;SDS011;51595;24.180;-110.296;2022-07-25T08:03:44;18.50;;;5.55;;
63874;SDS011;51595;24.180;-110.296;2022-07-25T08:06:11;27.23;;;6.43;;
63874;SDS011;51595;24.180;-110.296;2022-07-25T08:08:37;18.70;;;5.45;;
63874;SDS011;51595;24.180;-110.296;2022-07-25T08:11:04;19.25;;;6.10;;
63874;SDS011;51595;24.180;-110.296;2022-07-25T08:13:30;24.73;;;6.20;;
63874;SDS011;51595;24.180;-110.296;2022-07-25T08:16:02;19.02;;;6.38;;
63874;SDS011;51595;24.180;-110.296;2022-07-25T08:18:29;22.92;;;6.60;;
63874;SDS011;51595;24.180;-110.296;2022-07-25T08:21:00;26.10;;;6.45;;
63874;SDS011;51595;24.180;-110.296;2022-07-25T08:23:29;26.52;;;6.43;;
63874;SDS011;51595;24.180;-110.296;2022-07-25T08:25:58;21.02;;;6.18;;
63874;SDS011;51595;24.180;-110.296;2022-07-25T08:28:25;21.50;;;5.47;;
63874;SDS011;51595;24.180;-110.296;2022-07-25T08:30:51;20.20;;;6.20;;
63874;SDS011;51595;24.180;-110.296;2022-07-25T08:33:18;22.15;;;6.13;;
63874;SDS011;51595;24.180;-110.296;2022-07-25T08:35:48;27.80;;;7.07;;
63874;SDS011;51595;24.180;-110.296;2022-07-25T08:38:18;19.38;;;6.10;;
63874;SDS011;51595;24.180;-110.296;2022-07-25T08:40:45;16.65;;;6.00;;
63874;SDS011;51595;24.180;-110.296;2022-07-25T08:43:12;17.73;;;5.88;;
63874;SDS011;51595;24.180;-110.296;2022-07-25T08:45:47;21.45;;;6.28;;
63874;SDS011;51595;24.180;-110.296;2022-07-25T08:48:18;23.70;;;5.67;;
63874;SDS011;51595;24.180;-110.296;2022-07-25T08:50:48;21.38;;;6.30;;
63874;SDS011;51595;24.180;-110.296;2022-07-25T08:53:16;23.02;;;6.90;;
63874;SDS011;51595;24.180;-110.296;2022-07-25T08:55:45;21.67;;;6.35;;
63874;SDS011;51595;24.180;-110.296;2022-07-25T08:58:13;24.10;;;6.75;;
63874;SDS011;51595;24.180;-110.296;2022-07-25T09:00:41;23.83;;;6.38;;
63874;SDS011;51595;24.180;-110.296;2022-07-25T09:03:08;21.55;;;6.07;;
63874;SDS011;51595;24.180;-110.296;2022-07-25T09:05:36;24.38;;;6.40;;
63874;SDS011;51595;24.180;-110.296;2022-07-25T09:08:08;26.27;;;7.55;;
63874;SDS011;51595;24.180;-110.296;2022-07-25T09:10:43;24.65;;;7.65;;
63874;SDS011;51595;24.180;-110.296;2022-07-25T09:13:12;21.27;;;7.38;;
63874;SDS011;51595;24.180;-110.296;2022-07-25T09:15:40;24.85;;;7.18;;
63874;SDS011;51595;24.180;-110.296;2022-07-25T09:18:13;27.10;;;7.65;;
63874;SDS011;51595;24.180;-110.296;2022-07-25T09:23:13;25.38;;;7.30;;
63874;SDS011;51595;24.180;-110.296;2022-07-25T09:25:51;24.20;;;7.50;;
63874;SDS011;51595;24.180;-110.296;2022-07-25T09:28:25;34.00;;;6.88;;
63874;SDS011;51595;24.180;-110.296;2022-07-25T09:31:00;25.38;;;7.47;;
63874;SDS011;51595;24.180;-110.296;2022-07-25T09:35:54;18.38;;;6.30;;
63874;SDS011;51595;24.180;-110.296;2022-07-25T09:38:21;27.48;;;7.32;;
63874;SDS011;51595;24.180;-110.296;2022-07-25T09:41:07;26.42;;;7.32;;
63874;SDS011;51595;24.180;-110.296;2022-07-25T09:43:37;28.50;;;7.22;;
63874;SDS011;51595;24.180;-110.296;2022-07-25T09:46:05;28.45;;;8.07;;
63874;SDS011;51595;24.180;-110.296;2022-07-25T09:48:33;27.17;;;7.93;;
63874;SDS011;51595;24.180;-110.296;2022-07-25T09:51:00;28.15;;;6.70;;
63874;SDS011;51595;24.180;-110.296;2022-07-25T09:53:27;26.50;;;6.93;;
63874;SDS011;51595;24.180;-110.296;2022-07-25T09:55:54;20.45;;;6.43;;
63874;SDS011;51595;24.180;-110.296;2022-07-25T09:58:25;17.45;;;5.93;;
63874;SDS011;51595;24.180;-110.296;2022-07-25T10:00:53;20.38;;;6.13;;
63874;SDS011;51595;24.180;-110.296;2022-07-25T10:09:25;21.40;;;6.43;;
63874;SDS011;51595;24.180;-110.296;2022-07-25T10:12:05;21.58;;;5.90;;
63874;SDS011;51595;24.180;-110.296;2022-07-25T10:14:36;18.88;;;6.03;;
63874;SDS011;51595;24.180;-110.296;2022-07-25T10:17:03;20.55;;;6.55;;
63874;SDS011;51595;24.180;-110.296;2022-07-25T10:19:47;20.77;;;6.32;;
63874;SDS011;51595;24.180;-110.296;2022-07-25T10:22:14;12.75;;;4.97;;
63874;SDS011;51595;24.180;-110.296;2022-07-25T10:24:45;17.58;;;6.32;;
63874;SDS011;51595;24.180;-110.296;2022-07-25T10:27:13;17.40;;;5.63;;
63874;SDS011;51595;24.180;-110.296;2022-07-25T10:29:52;17.75;;;5.68;;
63874;SDS011;51595;24.180;-110.296;2022-07-25T10:32:24;20.00;;;5.43;;
63874;SDS011;51595;24.180;-110.296;2022-07-25T10:34:56;18.75;;;5.47;;
63874;SDS011;51595;24.180;-110.296;2022-07-25T10:37:26;15.07;;;5.57;;
63874;SDS011;51595;24.180;-110.296;2022-07-25T10:39:53;16.45;;;5.75;;
63874;SDS011;51595;24.180;-110.296;2022-07-25T10:42:21;18.63;;;6.30;;
63874;SDS011;51595;24.180;-110.296;2022-07-25T10:44:49;15.43;;;5.22;;
63874;SDS011;51595;24.180;-110.296;2022-07-25T10:47:21;22.50;;;6.13;;
63874;SDS011;51595;24.180;-110.296;2022-07-25T10:49:55;17.08;;;5.43;;
63874;SDS011;51595;24.180;-110.296;2022-07-25T10:52:26;15.43;;;5.97;;
63874;SDS011;51595;24.180;-110.296;2022-07-25T10:57:21;23.08;;;7.13;;
63874;SDS011;51595;24.180;-110.296;2022-07-25T10:59:48;20.90;;;6.20;;
63874;SDS011;51595;24.180;-110.296;2022-07-25T11:02:14;22.73;;;6.90;;
63874;SDS011;51595;24.180;-110.296;2022-07-25T11:04:42;22.77;;;6.60;;
63874;SDS011;51595;24.180;-110.296;2022-07-25T11:07:29;29.88;;;7.35;;
63874;SDS011;51595;24.180;-110.296;2022-07-25T11:10:03;18.73;;;6.10;;
63874;SDS011;51595;24.180;-110.296;2022-07-25T11:12:30;19.65;;;5.80;;
63874;SDS011;51595;24.180;-110.296;2022-07-25T11:15:04;19.30;;;6.10;;
63874;SDS011;51595;24.180;-110.296;2022-07-25T11:17:32;21.50;;;6.38;;
63874;SDS011;51595;24.180;-110.296;2022-07-25T11:20:00;15.90;;;6.22;;
63874;SDS011;51595;24.180;-110.296;2022-07-25T11:22:29;23.58;;;6.78;;
63874;SDS011;51595;24.180;-110.296;2022-07-25T11:24:57;19.35;;;6.07;;
63874;SDS011;51595;24.180;-110.296;2022-07-25T11:27:32;24.70;;;7.25;;
63874;SDS011;51595;24.180;-110.296;2022-07-25T11:32:41;22.17;;;6.32;;
63874;SDS011;51595;24.180;-110.296;2022-07-25T11:35:10;25.92;;;7.13;;
63874;SDS011;51595;24.180;-110.296;2022-07-25T11:37:39;24.80;;;6.78;;
63874;SDS011;51595;24.180;-110.296;2022-07-25T11:40:07;24.05;;;6.18;;
63874;SDS011;51595;24.180;-110.296;2022-07-25T11:42:38;20.67;;;6.30;;
63874;SDS011;51595;24.180;-110.296;2022-07-25T11:45:29;22.00;;;6.47;;
63874;SDS011;51595;24.180;-110.296;2022-07-25T11:50:32;21.83;;;7.30;;
63874;SDS011;51595;24.180;-110.296;2022-07-25T11:53:04;25.02;;;5.95;;
63874;SDS011;51595;24.180;-110.296;2022-07-25T11:55:33;22.50;;;6.55;;
63874;SDS011;51595;24.180;-110.296;2022-07-25T11:58:02;26.02;;;6.35;;
63874;SDS011;51595;24.180;-110.296;2022-07-25T12:00:32;23.88;;;6.63;;
63874;SDS011;51595;24.180;-110.296;2022-07-25T12:03:06;21.95;;;6.82;;
63874;SDS011;51595;24.180;-110.296;2022-07-25T12:05:34;22.13;;;6.88;;
63874;SDS011;51595;24.180;-110.296;2022-07-25T12:10:37;23.17;;;5.97;;
63874;SDS011;51595;24.180;-110.296;2022-07-25T12:13:04;24.08;;;6.57;;
63874;SDS011;51595;24.180;-110.296;2022-07-25T12:15:37;23.58;;;6.82;;
63874;SDS011;51595;24.180;-110.296;2022-07-25T12:18:05;26.85;;;6.45;;
63874;SDS011;51595;24.180;-110.296;2022-07-25T12:20:37;21.50;;;6.32;;
63874;SDS011;51595;24.180;-110.296;2022-07-25T12:23:07;24.38;;;7.38;;
63874;SDS011;51595;24.180;-110.296;2022-07-25T12:25:36;23.85;;;6.68;;
63874;SDS011;51595;24.180;-110.296;2022-07-25T12:28:05;21.50;;;5.82;;
63874;SDS011;51595;24.180;-110.296;2022-07-25T12:30:34;20.08;;;5.18;;
63874;SDS011;51595;24.180;-110.296;2022-07-25T12:33:01;20.70;;;5.68;;
63874;SDS011;51595;24.180;-110.296;2022-07-25T12:35:28;18.17;;;5.57;;
63874;SDS011;51595;24.180;-110.296;2022-07-25T12:37:54;23.63;;;5.82;;
63874;SDS011;51595;24.180;-110.296;2022-07-25T12:40:21;19.02;;;5.20;;
63874;SDS011;51595;24.180;-110.296;2022-07-25T12:42:48;16.60;;;5.00;;
63874;SDS011;51595;24.180;-110.296;2022-07-25T12:45:15;20.48;;;5.35;;
63874;SDS011;51595;24.180;-110.296;2022-07-25T12:47:46;20.20;;;5.63;;
63874;SDS011;51595;24.180;-110.296;2022-07-25T12:50:13;20.23;;;5.78;;
63874;SDS011;51595;24.180;-110.296;2022-07-25T12:52:41;20.10;;;5.25;;
63874;SDS011;51595;24.180;-110.296;2022-07-25T12:55:09;24.35;;;7.18;;
63874;SDS011;51595;24.180;-110.296;2022-07-25T12:57:38;16.60;;;4.82;;
63874;SDS011;51595;24.180;-110.296;2022-07-25T13:00:05;27.65;;;6.55;;
63874;SDS011;51595;24.180;-110.296;2022-07-25T13:02:34;14.50;;;5.35;;
63874;SDS011;51595;24.180;-110.296;2022-07-25T13:05:01;20.52;;;5.75;;
63874;SDS011;51595;24.180;-110.296;2022-07-25T13:07:28;17.38;;;5.72;;
63874;SDS011;51595;24.180;-110.296;2022-07-25T13:09:54;15.32;;;4.85;;
63874;SDS011;51595;24.180;-110.296;2022-07-25T13:12:21;13.75;;;4.70;;
63874;SDS011;51595;24.180;-110.296;2022-07-25T13:14:48;17.63;;;5.07;;
63874;SDS011;51595;24.180;-110.296;2022-07-25T13:17:16;14.35;;;4.97;;
63874;SDS011;51595;24.180;-110.296;2022-07-25T13:19:43;18.77;;;5.95;;
63874;SDS011;51595;24.180;-110.296;2022-07-25T13:22:09;17.60;;;5.60;;
63874;SDS011;51595;24.180;-110.296;2022-07-25T13:24:35;13.23;;;5.00;;
63874;SDS011;51595;24.180;-110.296;2022-07-25T13:27:03;14.50;;;5.43;;
63874;SDS011;51595;24.180;-110.296;2022-07-25T13:29:32;17.33;;;5.40;;
63874;SDS011;51595;24.180;-110.296;2022-07-25T13:31:58;13.48;;;4.90;;
63874;SDS011;51595;24.180;-110.296;2022-07-25T13:34:25;22.20;;;5.13;;
63874;SDS011;51595;24.180;-110.296;2022-07-25T13:36:51;18.40;;;6.15;;
63874;SDS011;51595;24.180;-110.296;2022-07-25T13:39:18;19.27;;;5.68;;
63874;SDS011;51595;24.180;-110.296;2022-07-25T13:41:47;15.05;;;5.03;;
63874;SDS011;51595;24.180;-110.296;2022-07-25T13:44:14;13.95;;;4.78;;
63874;SDS011;51595;24.180;-110.296;2022-07-25T13:46:40;15.82;;;5.20;;
63874;SDS011;51595;24.180;-110.296;2022-07-25T13:49:07;14.15;;;4.95;;
63874;SDS011;51595;24.180;-110.296;2022-07-25T13:51:35;12.55;;;5.15;;
63874;SDS011;51595;24.180;-110.296;2022-07-25T13:54:02;15.35;;;5.28;;
63874;SDS011;51595;24.180;-110.296;2022-07-25T13:56:29;16.42;;;4.97;;
63874;SDS011;51595;24.180;-110.296;2022-07-25T13:58:56;14.80;;;5.00;;
63874;SDS011;51595;24.180;-110.296;2022-07-25T14:01:23;16.00;;;4.78;;
63874;SDS011;51595;24.180;-110.296;2022-07-25T14:03:52;15.80;;;5.35;;
63874;SDS011;51595;24.180;-110.296;2022-07-25T14:06:19;15.18;;;4.88;;
63874;SDS011;51595;24.180;-110.296;2022-07-25T14:08:46;17.92;;;5.35;;
63874;SDS011;51595;24.180;-110.296;2022-07-25T14:11:12;14.20;;;5.03;;
63874;SDS011;51595;24.180;-110.296;2022-07-25T14:13:39;11.50;;;4.50;;
63874;SDS011;51595;24.180;-110.296;2022-07-25T14:16:07;9.27;;;4.10;;
63874;SDS011;51595;24.180;-110.296;2022-07-25T14:18:34;13.45;;;4.32;;
63874;SDS011;51595;24.180;-110.296;2022-07-25T14:21:00;16.95;;;5.07;;